createdAt,value
2023-01-11T00:01:29.615Z,101134.82
2023-01-11T00:04:48.795Z,101135.67
2023-01-11T00:08:11.653Z,101137.23
2023-01-11T00:12:02.280Z,101129.66
2023-01-11T00:16:10.249Z,101123.98
2023-01-11T00:19:40.664Z,101114.14
2023-01-11T00:23:08.738Z,101116.23
2023-01-11T00:26:58.306Z,101117.95
2023-01-11T00:30:27.424Z,101117.79
2023-01-11T00:33:56.016Z,101115.55
2023-01-11T00:37:13.755Z,101111.25
2023-01-11T00:41:21.769Z,101111.27
2023-01-11T00:45:03.476Z,101108.84
2023-01-11T00:48:12.181Z,101107.98
2023-01-11T00:50:56.981Z,101106.09
2023-01-11T00:54:25.978Z,101109.02
2023-01-11T00:58:25.629Z,101111.95
2023-01-11T01:01:48.120Z,101113.33
2023-01-11T01:05:09.531Z,101116.27
2023-01-11T01:08:07.319Z,101119.02
2023-01-11T01:11:44.358Z,101118.51
2023-01-11T01:15:25.273Z,101119.88
2023-01-11T01:19:24.629Z,101120.73
2023-01-11T01:23:33.997Z,101122.47
2023-01-11T01:27:43.529Z,101121.61
2023-01-11T01:31:41.453Z,101119.36
2023-01-11T01:35:03.691Z,101122.64
2023-01-11T01:38:25.521Z,101119.70
2023-01-11T01:42:35.072Z,101116.60
2023-01-11T01:46:06.754Z,101117.46
2023-01-11T01:49:07.985Z,101114.37
2023-01-11T01:52:30.373Z,101111.95
2023-01-11T01:55:33.316Z,101105.40
2023-01-11T01:58:48.756Z,101099.17
2023-01-11T02:02:22.029Z,101091.27
2023-01-11T02:05:22.888Z,101089.55
2023-01-11T02:08:41.163Z,101089.89
2023-01-11T02:12:32.060Z,101085.06
2023-01-11T02:16:12.816Z,101082.47
2023-01-11T02:19:46.371Z,101076.61
2023-01-11T02:23:28.283Z,101077.65
2023-01-11T02:27:09.669Z,101072.47
2023-01-11T02:31:34.158Z,101063.67
2023-01-11T02:35:26.080Z,101058.33
2023-01-11T02:39:33.554Z,101052.13
2023-01-11T02:43:09.276Z,101045.23
2023-01-11T02:47:15.690Z,101037.48
2023-01-11T02:56:04.742Z,101029.55
2023-01-11T02:59:24.694Z,101026.27
2023-01-11T03:02:46.319Z,101021.11
2023-01-11T03:06:22.536Z,101013.01
2023-01-11T03:10:32.639Z,101011.45
2023-01-11T03:14:09.851Z,101005.92
2023-01-11T03:18:23.565Z,101006.23
2023-01-11T03:22:28.882Z,101000.17
2023-01-11T03:26:59.826Z,100991.86
2023-01-11T03:31:01.177Z,100983.41
2023-01-11T03:34:46.412Z,100977.73
2023-01-11T03:38:19.322Z,100967.40
2023-01-11T03:41:59.052Z,100967.08
2023-01-11T03:45:54.367Z,100963.82
2023-01-11T03:49:08.379Z,100958.31
2023-01-11T03:52:15.930Z,100949.05
2023-01-11T03:55:58.084Z,100943.36
2023-01-11T03:59:01.358Z,100939.91
2023-01-11T04:02:23.315Z,100925.12
2023-01-11T04:05:44.101Z,100917.89
2023-01-11T04:09:22.596Z,100909.98
2023-01-11T04:12:33.969Z,100908.43
2023-01-11T04:16:23.029Z,100902.23
2023-01-11T04:20:32.541Z,100891.73
2023-01-11T04:24:42.048Z,100883.27
2023-01-11T04:28:43.561Z,100868.47
2023-01-11T04:32:27.717Z,100870.20
2023-01-11T04:36:37.083Z,100872.41
2023-01-11T04:40:46.919Z,100870.17
2023-01-11T04:44:56.368Z,100860.89
2023-01-11T04:48:45.795Z,100862.27
2023-01-11T04:52:53.686Z,100856.26
2023-01-11T04:56:53.273Z,100850.75
2023-01-11T05:00:53.679Z,100845.06
2023-01-11T05:04:39.577Z,100837.51
2023-01-11T05:08:49.241Z,100834.59
2023-01-11T05:12:40.032Z,100826.86
2023-01-11T05:16:38.434Z,100822.38
2023-01-11T05:20:48.166Z,100818.59
2023-01-11T05:24:57.689Z,100821.34
2023-01-11T05:28:45.981Z,100813.61
2023-01-11T05:31:54.505Z,100808.80
2023-01-11T05:35:26.703Z,100807.93
2023-01-11T05:39:28.809Z,100803.45
2023-01-11T05:43:28.352Z,100794.34
2023-01-11T05:47:14.081Z,100787.63
2023-01-11T05:51:12.783Z,100787.61
2023-01-11T05:55:14.847Z,100771.10
2023-01-11T05:59:07.823Z,100771.10
2023-01-11T06:02:57.355Z,100768.01
2023-01-11T06:06:45.714Z,100761.47
2023-01-11T06:10:36.173Z,100754.07
2023-01-11T06:14:24.463Z,100745.47
2023-01-11T06:17:43.486Z,100731.18
2023-01-11T06:21:04.584Z,100728.25
2023-01-11T06:24:54.117Z,100721.55
2023-01-11T06:28:41.550Z,100730.33
2023-01-11T06:32:40.753Z,100731.36
2023-01-11T06:36:08.594Z,100729.13
2023-01-11T06:39:54.466Z,100729.63
2023-01-11T06:43:36.580Z,100724.30
2023-01-11T06:47:32.507Z,100717.59
2023-01-11T06:51:32.856Z,100716.39
2023-01-11T06:55:22.148Z,100712.77
2023-01-11T06:59:00.133Z,100715.87
2023-01-11T07:02:49.417Z,100713.11
2023-01-11T07:05:39.049Z,100717.23
2023-01-11T07:09:08.369Z,100710.67
2023-01-11T07:12:55.248Z,100713.27
2023-01-11T07:16:54.786Z,100713.24
2023-01-11T07:20:33.256Z,100710.31
2023-01-11T07:24:22.353Z,100699.64
2023-01-11T07:28:32.128Z,100700.65
2023-01-11T07:32:22.637Z,100712.33
2023-01-11T07:36:07.648Z,100718.85
2023-01-11T07:40:04.047Z,100712.48
2023-01-11T07:51:35.224Z,100707.27
2023-01-11T07:55:32.457Z,100691.41
2023-01-11T07:59:32.138Z,100694.51
2023-01-11T08:02:39.154Z,100683.13
2023-01-11T08:06:13.725Z,100676.06
2023-01-11T08:10:12.972Z,100669.33
2023-01-11T08:13:14.870Z,100663.64
2023-01-11T08:16:13.809Z,100665.53
2023-01-11T08:19:38.655Z,100663.63
2023-01-11T08:22:48.716Z,100662.42
2023-01-11T08:25:49.224Z,100673.96
2023-01-11T08:29:09.542Z,100664.98
2023-01-11T08:32:54.418Z,100664.80
2023-01-11T08:36:24.495Z,100670.81
2023-01-11T08:39:45.962Z,100668.05
2023-01-11T08:43:55.336Z,100669.95
2023-01-11T08:48:04.824Z,100667.52
2023-01-11T08:51:32.826Z,100655.45
2023-01-11T08:55:22.021Z,100657.14
2023-01-11T08:58:38.585Z,100656.94
2023-01-11T09:01:25.961Z,100662.27
2023-01-11T09:04:44.380Z,100651.58
2023-01-11T09:07:47.537Z,100651.05
2023-01-11T09:11:19.683Z,100647.59
2023-01-11T09:15:12.070Z,100635.52
2023-01-11T09:19:18.786Z,100630.16
2023-01-11T09:23:08.131Z,100632.38
2023-01-11T09:27:16.489Z,100632.34
2023-01-11T09:31:16.152Z,100626.45
2023-01-11T09:34:52.174Z,100617.30
2023-01-11T09:38:35.295Z,100599.86
2023-01-11T09:42:52.323Z,100592.42
2023-01-11T09:46:41.532Z,100589.46
2023-01-11T09:50:30.541Z,100577.38
2023-01-11T09:54:39.962Z,100578.56
2023-01-11T09:58:52.423Z,100576.64
2023-01-11T10:03:05.115Z,100570.06
2023-01-11T10:06:45.454Z,100565.77
2023-01-11T10:18:29.453Z,100554.82
2023-01-11T10:19:39.723Z,100543.59
2023-01-11T10:23:43.216Z,100548.06
2023-01-11T10:27:05.039Z,100538.55
2023-01-11T10:30:32.728Z,100534.21
2023-01-11T10:34:12.946Z,100530.91
2023-01-11T10:38:13.489Z,100531.42
2023-01-11T10:42:28.258Z,100522.77
2023-01-11T10:45:46.565Z,100526.72
2023-01-11T10:49:14.353Z,100520.65
2023-01-11T10:53:34.435Z,100512.69
2023-01-11T10:57:20.051Z,100504.59
2023-01-11T11:00:41.673Z,100502.53
2023-01-11T11:04:11.319Z,100497.02
2023-01-11T11:08:32.860Z,100487.87
2023-01-11T11:12:31.652Z,100485.98
2023-01-11T11:16:12.314Z,100482.71
2023-01-11T11:20:01.362Z,100472.33
2023-01-11T11:23:54.549Z,100470.64
2023-01-11T11:27:14.644Z,100466.47
2023-01-11T11:30:34.664Z,100468.73
2023-01-11T11:34:27.445Z,100463.04
2023-01-11T11:37:39.332Z,100459.08
2023-01-11T11:41:50.225Z,100447.88
2023-01-11T11:46:11.982Z,100445.80
2023-01-11T11:49:53.585Z,100435.80
2023-01-11T11:53:06.664Z,100427.35
2023-01-11T11:55:59.697Z,100422.52
2023-01-11T11:59:30.341Z,100409.93
2023-01-11T12:03:30.649Z,100408.05
2023-01-11T12:07:25.048Z,100407.02
2023-01-11T12:10:27.047Z,100408.21
2023-01-11T12:14:40.277Z,100398.35
2023-01-11T12:17:55.206Z,100397.46
2023-01-11T12:20:51.532Z,100391.25
2023-01-11T12:24:05.535Z,100386.42
2023-01-11T12:27:26.694Z,100380.22
2023-01-11T12:30:45.361Z,100371.10
2023-01-11T12:33:49.542Z,100367.85
2023-01-11T12:36:53.652Z,100367.01
2023-01-11T12:39:57.768Z,100362.70
2023-01-11T12:43:04.019Z,100354.96
2023-01-11T12:46:14.713Z,100354.28
2023-01-11T12:49:18.813Z,100355.66
2023-01-11T12:52:16.980Z,100357.39
2023-01-11T12:55:32.833Z,100350.14
2023-01-11T12:58:38.645Z,100354.61
2023-01-11T13:02:17.982Z,100357.71
2023-01-11T13:05:29.585Z,100352.19
2023-01-11T13:08:38.246Z,100349.80
2023-01-11T13:12:27.517Z,100343.61
2023-01-11T13:15:45.074Z,100346.05
2023-01-11T13:18:59.196Z,100337.61
2023-01-11T13:21:43.758Z,100339.55
2023-01-11T13:24:26.505Z,100339.39
2023-01-11T13:27:23.044Z,100332.16
2023-01-11T13:31:10.802Z,100333.55
2023-01-11T13:34:58.702Z,100340.27
2023-01-11T13:38:14.092Z,100333.34
2023-01-11T13:42:06.748Z,100330.24
2023-01-11T13:46:21.375Z,100330.23
2023-01-11T13:49:29.800Z,100331.97
2023-01-11T13:52:58.739Z,100327.13
2023-01-11T13:56:20.114Z,100324.90
2023-01-11T14:00:03.978Z,100326.27
2023-01-11T14:04:13.137Z,100327.15
2023-01-11T14:08:05.854Z,100315.45
2023-01-11T14:11:55.461Z,100324.96
2023-01-11T14:15:39.869Z,100325.66
2023-01-11T14:19:12.183Z,100328.95
2023-01-11T14:22:44.299Z,100330.29
2023-01-11T14:25:50.532Z,100325.61
2023-01-11T14:29:25.656Z,100330.91
2023-01-11T14:33:08.958Z,100324.54
2023-01-11T14:36:52.870Z,100319.84
2023-01-11T14:40:40.479Z,100325.00
2023-01-11T14:43:30.592Z,100320.01
2023-01-11T14:46:50.113Z,100312.94
2023-01-11T14:50:05.132Z,100314.67
2023-01-11T14:53:07.926Z,100309.33
2023-01-11T14:55:46.589Z,100313.64
2023-01-11T14:58:48.840Z,100315.70
2023-01-11T15:01:28.967Z,100313.45
2023-01-11T15:04:21.612Z,100311.90
2023-01-11T15:07:42.147Z,100311.37
2023-01-11T15:11:20.593Z,100309.08
2023-01-11T15:14:41.685Z,100309.20
2023-01-11T15:17:49.755Z,100309.52
2023-01-11T15:21:02.167Z,100300.75
2023-01-11T15:24:11.376Z,100302.88
2023-01-11T15:27:01.908Z,100296.51
2023-01-11T15:30:08.887Z,100292.39
2023-01-11T15:33:15.558Z,100288.09
2023-01-11T15:36:18.585Z,100280.13
2023-01-11T15:39:15.720Z,100278.92
2023-01-11T15:42:52.068Z,100287.33
2023-01-11T15:46:28.365Z,100290.73
2023-01-11T15:49:57.097Z,100285.56
2023-01-11T15:53:27.680Z,100286.44
2023-01-11T15:57:31.284Z,100276.09
2023-01-11T16:05:39.640Z,100276.11
2023-01-11T16:08:38.501Z,100275.73
2023-01-11T16:11:34.578Z,100276.77
2023-01-11T16:14:31.815Z,100270.06
2023-01-11T16:17:00.907Z,100270.73
2023-01-11T16:19:35.818Z,100280.23
2023-01-11T16:22:05.879Z,100280.54
2023-01-11T16:24:42.558Z,100287.23
2023-01-11T16:27:27.826Z,100287.71
2023-01-11T16:29:56.896Z,100285.09
2023-01-11T16:32:33.015Z,100285.90
2023-01-11T16:35:25.348Z,100282.44
2023-01-11T16:38:04.226Z,100274.13
2023-01-11T16:40:37.706Z,100274.15
2023-01-11T16:43:08.857Z,100271.90
2023-01-11T16:45:48.858Z,100275.87
2023-01-11T16:48:35.720Z,100274.50
2023-01-11T16:51:05.914Z,100277.58
2023-01-11T16:53:36.141Z,100282.72
2023-01-11T16:56:24.515Z,100284.42
2023-01-11T16:59:14.195Z,100285.97
2023-01-11T17:01:56.684Z,100282.52
2023-01-11T17:04:32.083Z,100283.04
2023-01-11T17:07:14.359Z,100281.48
2023-01-11T17:09:43.914Z,100288.89
2023-01-11T17:12:19.516Z,100285.45
2023-01-11T17:14:50.240Z,100286.66
2023-01-11T17:17:38.243Z,100293.72
2023-01-11T17:20:19.881Z,100292.48
2023-01-11T17:22:53.659Z,100297.60
2023-01-11T17:25:37.265Z,100304.13
2023-01-11T17:28:18.432Z,100304.61
2023-01-11T17:30:48.921Z,100300.12
2023-01-11T17:33:32.215Z,100302.54
2023-01-11T17:36:01.740Z,100300.13
2023-01-11T17:38:30.383Z,100296.14
2023-01-11T17:41:01.446Z,100292.34
2023-01-11T17:43:49.314Z,100296.85
2023-01-11T17:46:36.870Z,100295.45
2023-01-11T17:49:04.902Z,100296.98
2023-01-11T17:51:34.695Z,100300.77
2023-01-11T17:54:03.715Z,100306.95
2023-01-11T17:56:37.764Z,100302.11
2023-01-11T17:59:18.902Z,100303.98
2023-01-11T18:02:12.154Z,100301.88
2023-01-11T18:04:41.503Z,100300.66
2023-01-11T18:07:28.277Z,100298.79
2023-01-11T18:10:22.459Z,100295.70
2023-01-11T18:13:23.190Z,100295.55
2023-01-11T18:16:19.427Z,100294.55
2023-01-11T18:19:30.605Z,100293.52
2023-01-11T18:21:59.287Z,100294.52
2023-01-11T18:24:32.714Z,100295.73
2023-01-11T18:27:24.820Z,100293.86
2023-01-11T18:29:54.499Z,100289.91
2023-01-11T18:32:23.526Z,100290.27
2023-01-11T18:34:54.493Z,100288.73
2023-01-11T18:37:42.153Z,100292.55
2023-01-11T18:40:17.727Z,100293.44
2023-01-11T18:42:49.044Z,100295.69
2023-01-11T18:45:18.196Z,100299.83
2023-01-11T18:47:46.763Z,100298.95
2023-01-11T18:50:17.511Z,100300.14
2023-01-11T18:52:47.007Z,100299.64
2023-01-11T18:55:15.388Z,100299.81
2023-01-11T18:57:44.172Z,100300.35
2023-01-11T19:00:15.160Z,100297.60
2023-01-11T19:02:46.095Z,100296.61
2023-01-11T19:05:18.830Z,100296.14
2023-01-11T19:07:47.841Z,100295.64
2023-01-11T19:10:18.631Z,100294.45
2023-01-11T19:12:47.168Z,100290.66
2023-01-11T19:15:16.658Z,100288.23
2023-01-11T19:17:45.256Z,100287.20
2023-01-11T19:20:14.425Z,100288.24
2023-01-11T19:22:42.920Z,100290.00
2023-01-11T19:25:11.777Z,100290.39
2023-01-11T19:27:39.925Z,100288.36
2023-01-11T19:30:27.724Z,100286.66
2023-01-11T19:32:56.317Z,100288.23
2023-01-11T19:35:45.127Z,100287.06
2023-01-11T19:38:13.521Z,100285.02
2023-01-11T19:40:41.796Z,100280.53
2023-01-11T19:43:10.611Z,100282.27
2023-01-11T19:45:38.698Z,100284.73
2023-01-11T19:48:26.392Z,100288.07
2023-01-11T19:51:02.757Z,100289.46
2023-01-11T19:53:32.562Z,100288.61
2023-01-11T19:56:05.045Z,100288.46
2023-01-11T19:58:36.083Z,100290.39
2023-01-11T20:01:11.922Z,100292.12
2023-01-11T20:03:47.504Z,100290.08
2023-01-11T20:06:16.058Z,100289.42
2023-01-11T20:08:45.357Z,100292.55
2023-01-11T20:11:16.113Z,100292.89
2023-01-11T20:14:03.088Z,100290.50
2023-01-11T20:16:51.044Z,100292.39
2023-01-11T20:19:19.547Z,100290.67
2023-01-11T20:22:06.855Z,100288.59
2023-01-11T20:24:35.249Z,100285.67
2023-01-11T20:27:03.648Z,100284.13
2023-01-11T20:29:31.919Z,100284.50
2023-01-11T20:32:18.582Z,100279.15
2023-01-11T20:34:48.403Z,100277.08
2023-01-11T20:37:37.343Z,100282.05
2023-01-11T20:40:06.499Z,100279.65
2023-01-11T20:42:34.943Z,100278.79
2023-01-11T20:45:03.731Z,100282.24
2023-01-11T20:47:31.903Z,100279.86
2023-01-11T20:49:59.849Z,100278.85
2023-01-11T20:52:28.655Z,100277.64
2023-01-11T20:54:56.931Z,100282.27
2023-01-11T20:57:29.624Z,100279.66
2023-01-11T20:59:58.220Z,100281.55
2023-01-11T21:02:26.610Z,100276.36
2023-01-11T21:05:13.261Z,100283.11
2023-01-11T21:08:00.118Z,100277.43
2023-01-11T21:10:28.439Z,100280.20
2023-01-11T21:15:26.015Z,100280.54
2023-01-11T21:18:12.861Z,100281.05
2023-01-11T21:20:47.766Z,100279.83
2023-01-11T21:23:18.612Z,100282.94
2023-01-11T21:25:47.011Z,100279.67
2023-01-11T21:28:15.181Z,100280.37
2023-01-11T21:30:43.660Z,100279.30
2023-01-11T21:33:16.006Z,100277.04
2023-01-11T21:35:44.109Z,100277.89
2023-01-11T21:38:12.386Z,100281.16
2023-01-11T21:40:40.529Z,100280.65
2023-01-11T21:43:27.873Z,100282.52
2023-01-11T21:45:56.867Z,100287.67
2023-01-11T21:48:24.939Z,100287.31
2023-01-11T21:50:54.348Z,100288.46
2023-01-11T21:53:23.029Z,100287.92
2023-01-11T21:55:51.208Z,100290.66
2023-01-11T21:58:19.385Z,100292.02
2023-01-11T22:00:47.464Z,100288.74
2023-01-11T22:03:15.532Z,100290.13
2023-01-11T22:05:43.622Z,100292.86
2023-01-11T22:08:11.658Z,100293.73
2023-01-11T22:10:39.737Z,100292.84
2023-01-11T22:13:12.869Z,100293.65
2023-01-11T22:15:40.932Z,100296.91
2023-01-11T22:18:13.994Z,100295.00
2023-01-11T22:20:42.152Z,100297.78
2023-01-11T22:23:10.244Z,100300.72
2023-01-11T22:25:38.316Z,100303.14
2023-01-11T22:28:06.373Z,100307.63
2023-01-11T22:30:34.376Z,100307.09
2023-01-11T22:33:02.513Z,100302.95
2023-01-11T22:35:31.410Z,100305.35
2023-01-11T22:37:59.446Z,100304.45
2023-01-11T22:40:27.620Z,100305.14
2023-01-11T22:42:55.646Z,100310.63
2023-01-11T22:45:23.785Z,100316.11
2023-01-11T22:47:52.061Z,100318.86
2023-01-11T22:50:20.042Z,100316.42
2023-01-11T22:52:48.094Z,100319.55
2023-01-11T22:55:34.621Z,100323.49
2023-01-11T22:58:21.624Z,100319.51
2023-01-11T23:00:49.898Z,100311.37
2023-01-11T23:03:17.975Z,100309.64
2023-01-11T23:05:46.956Z,100309.11
2023-01-11T23:08:40.871Z,100313.91
2023-01-11T23:11:11.879Z,100315.98
2023-01-11T23:13:55.131Z,100317.80
2023-01-11T23:16:23.213Z,100318.98
2023-01-11T23:18:51.555Z,100315.52
2023-01-11T23:21:20.663Z,100313.27
2023-01-11T23:23:48.721Z,100314.29
2023-01-11T23:26:20.491Z,100310.85
2023-01-11T23:28:50.423Z,100314.46
2023-01-11T23:31:23.546Z,100312.92
2023-01-11T23:33:54.242Z,100309.44
2023-01-11T23:36:24.574Z,100308.04
2023-01-11T23:38:52.595Z,100316.83
2023-01-11T23:41:40.348Z,100315.80
2023-01-11T23:44:11.824Z,100316.51
2023-01-11T23:46:59.542Z,100315.98
2023-01-11T23:49:32.822Z,100316.47
2023-01-11T23:52:01.615Z,100315.24
2023-01-11T23:54:32.276Z,100313.67
2023-01-11T23:57:01.946Z,100315.05
2023-01-11T23:59:30.127Z,100317.46
